createdAt,value
2018-02-10T00:00:24.116Z,79.24
2018-02-10T00:01:24.124Z,79.47
2018-02-10T00:02:24.140Z,79.45
2018-02-10T00:03:24.139Z,79.32
2018-02-10T00:04:24.144Z,79.53
2018-02-10T00:05:24.191Z,79.56
2018-02-10T00:06:24.142Z,79.4
2018-02-10T00:07:24.130Z,79.29
2018-02-10T00:08:24.138Z,79.71
2018-02-10T00:09:24.170Z,79.68
2018-02-10T00:10:24.136Z,79.64
2018-02-10T00:11:24.128Z,79.43
2018-02-10T00:12:24.127Z,79.68
2018-02-10T00:13:24.118Z,79.64
2018-02-10T00:14:24.133Z,79.57
2018-02-10T00:15:24.142Z,79.8
2018-02-10T00:16:24.131Z,79.82
2018-02-10T00:17:24.117Z,79.83
2018-02-10T00:18:24.129Z,80.09
2018-02-10T00:19:24.148Z,79.97
2018-02-10T00:20:24.132Z,79.89
2018-02-10T00:21:24.113Z,79.94
2018-02-10T00:22:24.114Z,80.08
2018-02-10T00:23:24.125Z,80.2
2018-02-10T00:24:24.185Z,79.92
2018-02-10T00:25:24.123Z,79.89
2018-02-10T00:26:24.130Z,80.12
2018-02-10T00:27:24.113Z,80.19
2018-02-10T00:28:24.142Z,80.31
2018-02-10T00:29:24.125Z,80.26
2018-02-10T00:30:24.121Z,80.45
2018-02-10T00:31:24.105Z,80.41
2018-02-10T00:32:24.112Z,80.22
2018-02-10T00:33:24.142Z,80.46
2018-02-10T00:34:24.168Z,80.53
2018-02-10T00:35:24.104Z,80.51
2018-02-10T00:36:24.138Z,80.35
2018-02-10T00:37:24.151Z,80.39
2018-02-10T00:38:24.177Z,80.14
2018-02-10T00:39:24.207Z,80.4
2018-02-10T00:40:24.145Z,80.47
2018-02-10T00:41:24.137Z,80.36
2018-02-10T00:42:24.146Z,80.27
2018-02-10T00:43:24.163Z,80.36
2018-02-10T00:44:24.136Z,80.14
2018-02-10T00:45:24.223Z,80.36
2018-02-10T00:46:24.138Z,80.36
2018-02-10T00:47:24.157Z,80.35
2018-02-10T00:48:24.155Z,80.44
2018-02-10T00:49:24.162Z,80.39
2018-02-10T00:50:24.146Z,80.38
2018-02-10T00:51:24.163Z,80.14
2018-02-10T00:52:24.148Z,80.29
2018-02-10T00:53:24.167Z,80.33
2018-02-10T00:54:24.149Z,80.33
2018-02-10T00:55:24.270Z,80.45
2018-02-10T00:56:24.139Z,80.67
2018-02-10T00:57:24.148Z,80.54
2018-02-10T00:58:24.131Z,80.67
2018-02-10T00:59:24.169Z,80.41
2018-02-10T01:00:24.191Z,80.71
2018-02-10T01:01:24.184Z,80.45
2018-02-10T01:02:24.161Z,80.76
2018-02-10T01:03:24.134Z,80.75
2018-02-10T01:04:24.218Z,80.71
2018-02-10T01:05:24.145Z,80.55
2018-02-10T01:06:24.165Z,80.7
2018-02-10T01:07:24.138Z,80.61
2018-02-10T01:08:24.031Z,80.54
2018-02-10T01:09:23.955Z,80.66
2018-02-10T01:10:23.975Z,80.71
2018-02-10T01:11:24.236Z,80.45
2018-02-10T01:12:23.973Z,80.73
2018-02-10T01:13:23.972Z,80.67
2018-02-10T01:14:23.992Z,80.58
2018-02-10T01:15:23.988Z,80.47
2018-02-10T01:16:24.004Z,80.5
2018-02-10T01:17:23.987Z,80.75
2018-02-10T01:18:23.953Z,80.52
2018-02-10T01:19:23.957Z,80.58
2018-02-10T01:20:23.978Z,80.92
2018-02-10T01:21:24.002Z,80.9
2018-02-10T01:22:24.032Z,80.72
2018-02-10T01:23:24.006Z,80.9
2018-02-10T01:24:23.964Z,80.86
2018-02-10T01:25:23.989Z,80.54
2018-02-10T01:26:23.979Z,80.5
2018-02-10T01:27:23.979Z,80.69
2018-02-10T01:28:23.969Z,80.67
2018-02-10T01:29:23.989Z,80.58
2018-02-10T01:30:23.979Z,80.49
2018-02-10T01:31:23.979Z,80.87
2018-02-10T01:32:24.008Z,80.84
2018-02-10T01:33:23.957Z,80.66
2018-02-10T01:34:23.988Z,80.88
2018-02-10T01:35:23.984Z,80.96
2018-02-10T01:36:24.021Z,80.74
2018-02-10T01:37:23.989Z,80.73
2018-02-10T01:38:23.987Z,80.88
2018-02-10T01:39:24.792Z,81
2018-02-10T01:40:24.789Z,80.89
2018-02-10T01:41:24.763Z,81
2018-02-10T01:42:24.829Z,80.95
2018-02-10T01:43:24.777Z,81.68
2018-02-10T01:44:24.768Z,81.38
2018-02-10T01:45:24.764Z,81.24
2018-02-10T01:46:24.795Z,81.27
2018-02-10T01:47:24.784Z,81.25
2018-02-10T01:48:24.768Z,81.13
2018-02-10T01:49:24.807Z,81.51
2018-02-10T01:50:24.782Z,81.46
2018-02-10T01:51:24.800Z,81.38
2018-02-10T01:52:24.900Z,81.24
2018-02-10T01:53:24.786Z,81.31
2018-02-10T01:54:24.764Z,80.99
2018-02-10T01:55:24.792Z,81.12
2018-02-10T01:56:24.775Z,81.07
2018-02-10T01:57:24.798Z,80.99
2018-02-10T01:58:24.775Z,81.37
2018-02-10T01:59:24.811Z,81.03
2018-02-10T02:00:24.778Z,81.21
2018-02-10T02:01:24.784Z,81.13
2018-02-10T02:02:24.768Z,81.3
2018-02-10T02:03:24.762Z,81.38
2018-02-10T02:04:24.968Z,81.61
2018-02-10T02:05:24.816Z,81.5
2018-02-10T02:06:24.778Z,81.45
2018-02-10T02:07:24.781Z,81.3
2018-02-10T02:08:24.776Z,81.17
2018-02-10T02:09:24.459Z,81.49
2018-02-10T02:10:24.492Z,81.31
2018-02-10T02:11:24.456Z,81.5
2018-02-10T02:12:24.462Z,81.34
2018-02-10T02:13:24.493Z,81.23
2018-02-10T02:14:24.436Z,81.36
2018-02-10T02:15:24.484Z,81.31
2018-02-10T02:16:24.460Z,81.7
2018-02-10T02:17:24.480Z,81.67
2018-02-10T02:18:24.509Z,81.73
2018-02-10T02:19:24.446Z,81.58
2018-02-10T02:20:24.509Z,81.79
2018-02-10T02:21:24.484Z,81.56
2018-02-10T02:22:24.464Z,81.58
2018-02-10T02:23:24.482Z,81.66
2018-02-10T02:24:24.506Z,81.7
2018-02-10T02:25:24.484Z,81.55
2018-02-10T02:26:24.465Z,81.48
2018-02-10T02:27:24.472Z,81.31
2018-02-10T02:28:24.505Z,81.35
2018-02-10T02:29:24.475Z,81.47
2018-02-10T02:30:24.482Z,81.6
2018-02-10T02:31:24.464Z,81.37
2018-02-10T02:32:24.496Z,81.3
2018-02-10T02:33:24.476Z,81.16
2018-02-10T02:34:24.464Z,81.1
2018-02-10T02:35:24.445Z,81.25
2018-02-10T02:36:24.497Z,81.09
2018-02-10T02:37:24.460Z,81.17
2018-02-10T02:38:24.509Z,81.2
2018-02-10T02:39:24.459Z,81.13
2018-02-10T02:40:24.337Z,81.34
2018-02-10T02:41:24.285Z,81.43
2018-02-10T02:42:24.268Z,81.62
2018-02-10T02:43:24.342Z,81.52
2018-02-10T02:44:24.308Z,81.57
2018-02-10T02:45:24.343Z,81.47
2018-02-10T02:46:24.259Z,81.45
2018-02-10T02:47:24.313Z,81.51
2018-02-10T02:48:24.298Z,81.55
2018-02-10T02:49:24.293Z,81.23
2018-02-10T02:50:24.313Z,81.15
2018-02-10T02:51:24.316Z,80.99
2018-02-10T02:52:24.314Z,80.91
2018-02-10T02:53:24.280Z,80.99
2018-02-10T02:54:24.349Z,81.06
2018-02-10T02:55:24.294Z,81.07
2018-02-10T02:56:24.287Z,80.91
2018-02-10T02:57:24.327Z,81.09
2018-02-10T02:58:24.303Z,80.72
2018-02-10T02:59:24.323Z,80.77
2018-02-10T03:00:24.284Z,80.71
2018-02-10T03:01:24.291Z,80.75
2018-02-10T03:02:24.292Z,80.97
2018-02-10T03:03:24.309Z,80.97
2018-02-10T03:04:24.329Z,80.93
2018-02-10T03:05:24.300Z,80.95
2018-02-10T03:06:24.291Z,81.03
2018-02-10T03:07:24.312Z,80.94
2018-02-10T03:08:24.292Z,80.96
2018-02-10T03:09:24.311Z,81.24
2018-02-10T03:10:24.283Z,81.08
2018-02-10T03:11:24.064Z,81.01
2018-02-10T03:12:24.076Z,81.16
2018-02-10T03:13:24.070Z,81.17
2018-02-10T03:14:24.094Z,81.37
2018-02-10T03:15:24.113Z,81.36
2018-02-10T03:16:24.080Z,81.42
2018-02-10T03:17:24.075Z,81.34
2018-02-10T03:18:24.057Z,81.78
2018-02-10T03:19:24.108Z,81.64
2018-02-10T03:20:24.098Z,81.6
2018-02-10T03:21:24.112Z,81.33
2018-02-10T03:22:24.062Z,81.38
2018-02-10T03:23:24.066Z,81.3
2018-02-10T03:24:24.075Z,81.45
2018-02-10T03:25:24.099Z,81.25
2018-02-10T03:26:24.063Z,81.32
2018-02-10T03:27:24.074Z,81.44
2018-02-10T03:28:24.085Z,81.27
2018-02-10T03:29:24.120Z,81.58
2018-02-10T03:30:24.120Z,81.48
2018-02-10T03:31:24.082Z,81.48
2018-02-10T03:32:24.069Z,81.57
2018-02-10T03:33:24.062Z,81.47
2018-02-10T03:34:24.079Z,81.68
2018-02-10T03:35:24.086Z,81.95
2018-02-10T03:36:24.107Z,81.95
2018-02-10T03:37:24.055Z,81.69
2018-02-10T03:38:24.072Z,82
2018-02-10T03:39:24.120Z,82.16
2018-02-10T03:40:24.086Z,82.1
2018-02-10T03:41:24.099Z,82.2
2018-02-10T03:42:23.904Z,81.98
2018-02-10T03:43:23.888Z,82.11
2018-02-10T03:44:23.890Z,82.08
2018-02-10T03:45:23.903Z,81.99
2018-02-10T03:46:23.891Z,82.17
2018-02-10T03:47:23.886Z,82.26
2018-02-10T03:48:23.913Z,82.32
2018-02-10T03:49:23.904Z,82.28
2018-02-10T03:50:23.872Z,82.26
2018-02-10T03:51:24.119Z,82.28
2018-02-10T03:52:23.878Z,82.69
2018-02-10T03:53:23.865Z,82.42
2018-02-10T03:54:23.855Z,82.29
2018-02-10T03:55:23.902Z,82.08
2018-02-10T03:56:23.898Z,82.37
2018-02-10T03:57:23.916Z,82.58
2018-02-10T03:58:23.897Z,82.14
2018-02-10T03:59:23.873Z,82.76
2018-02-10T04:00:23.888Z,82.21
2018-02-10T04:01:23.864Z,82.32
2018-02-10T04:02:23.903Z,82.53
2018-02-10T04:03:23.896Z,82.67
2018-02-10T04:04:23.936Z,82.44
2018-02-10T04:05:23.869Z,82.12
2018-02-10T04:06:23.918Z,82.14
2018-02-10T04:07:23.904Z,82.21
2018-02-10T04:08:23.892Z,82.07
2018-02-10T04:09:23.873Z,81.92
2018-02-10T04:10:23.891Z,82.02
2018-02-10T04:11:23.899Z,81.71
2018-02-10T04:12:23.885Z,81.86
2018-02-10T04:13:24.746Z,81.59
2018-02-10T04:14:24.727Z,81.61
2018-02-10T04:15:24.734Z,81.71
2018-02-10T04:16:24.735Z,81.85
2018-02-10T04:17:24.735Z,81.93
2018-02-10T04:18:24.757Z,81.96
2018-02-10T04:19:24.722Z,81.87
2018-02-10T04:20:24.722Z,81.95
2018-02-10T04:21:24.868Z,82.05
2018-02-10T04:22:24.770Z,81.95
2018-02-10T04:23:24.750Z,81.79
2018-02-10T04:24:24.852Z,81.74
2018-02-10T04:25:24.727Z,81.99
2018-02-10T04:26:24.772Z,81.95
2018-02-10T04:27:24.745Z,82.02
2018-02-10T04:28:24.768Z,81.89
2018-02-10T04:29:24.753Z,81.86
2018-02-10T04:30:24.724Z,81.77
2018-02-10T04:31:24.754Z,82.04
2018-02-10T04:32:24.750Z,82.22
2018-02-10T04:33:24.707Z,82
2018-02-10T04:34:24.754Z,82.11
2018-02-10T04:35:24.775Z,81.9
2018-02-10T04:36:24.790Z,82
2018-02-10T04:37:24.741Z,81.94
2018-02-10T04:38:24.753Z,81.85
2018-02-10T04:39:24.774Z,81.91
2018-02-10T04:40:24.743Z,81.9
2018-02-10T04:41:24.749Z,81.79
2018-02-10T04:42:24.767Z,82.21
2018-02-10T04:43:24.650Z,82.31
2018-02-10T04:44:24.679Z,82.1
2018-02-10T04:45:24.647Z,82.28
2018-02-10T04:46:24.640Z,82.22
2018-02-10T04:47:24.649Z,82.26
2018-02-10T04:48:24.636Z,82.45
2018-02-10T04:49:24.654Z,82.41
2018-02-10T04:50:24.631Z,82.31
2018-02-10T04:51:24.648Z,82.63
2018-02-10T04:52:24.838Z,82.35
2018-02-10T04:53:24.670Z,82.4
2018-02-10T04:54:24.608Z,82.5
2018-02-10T04:55:24.665Z,82.77
2018-02-10T04:56:24.622Z,82.79
2018-02-10T04:57:24.657Z,82.79
2018-02-10T04:58:24.649Z,82.73
2018-02-10T04:59:24.642Z,82.5
2018-02-10T05:00:24.651Z,82.84
2018-02-10T05:01:24.644Z,82.59
2018-02-10T05:02:24.653Z,82.64
2018-02-10T05:03:24.658Z,82.58
2018-02-10T05:04:24.643Z,82.78
2018-02-10T05:05:24.647Z,83.04
2018-02-10T05:06:24.684Z,82.95
2018-02-10T05:07:24.696Z,83.14
2018-02-10T05:08:24.654Z,83.21
2018-02-10T05:09:24.664Z,83.04
2018-02-10T05:10:24.627Z,82.94
2018-02-10T05:11:24.650Z,82.97
2018-02-10T05:12:24.628Z,83.15
2018-02-10T05:13:24.664Z,82.98
2018-02-10T05:14:24.569Z,83.27
2018-02-10T05:15:24.596Z,83.37
2018-02-10T05:16:24.596Z,83.09
2018-02-10T05:17:24.552Z,83.15
2018-02-10T05:18:24.578Z,83.11
2018-02-10T05:19:24.592Z,83.32
2018-02-10T05:20:24.530Z,83.45
2018-02-10T05:21:24.565Z,83.27
2018-02-10T05:22:24.587Z,83.05
2018-02-10T05:23:24.619Z,83.45
2018-02-10T05:24:24.588Z,83.35
2018-02-10T05:25:24.554Z,83.28
2018-02-10T05:26:24.529Z,83.53
2018-02-10T05:27:24.543Z,83.14
2018-02-10T05:28:24.590Z,83.34
2018-02-10T05:29:24.571Z,83.39
2018-02-10T05:30:24.558Z,83.51
2018-02-10T05:31:24.585Z,83.62
2018-02-10T05:32:24.564Z,83.69
2018-02-10T05:33:24.577Z,83.66
2018-02-10T05:34:24.586Z,84.04
2018-02-10T05:35:24.560Z,83.94
2018-02-10T05:36:24.549Z,83.88
2018-02-10T05:37:24.587Z,83.69
2018-02-10T05:38:24.554Z,83.88
2018-02-10T05:39:24.540Z,84.02
2018-02-10T05:40:24.545Z,83.93
2018-02-10T05:41:24.552Z,83.7
2018-02-10T05:42:24.562Z,84.12
2018-02-10T05:43:24.628Z,84.14
2018-02-10T05:44:24.650Z,84.69
2018-02-10T05:45:24.378Z,84.47
2018-02-10T05:46:24.371Z,84.44
2018-02-10T05:47:24.407Z,84.32
2018-02-10T05:48:24.509Z,84.09
2018-02-10T05:49:24.406Z,84.39
2018-02-10T05:50:24.378Z,83.71
2018-02-10T05:51:24.423Z,83.99
2018-02-10T05:52:24.411Z,83.69
2018-02-10T05:53:24.402Z,84.09
2018-02-10T05:54:24.387Z,84.28
2018-02-10T05:55:24.383Z,84.14
2018-02-10T05:56:24.400Z,84.1
2018-02-10T05:57:24.410Z,84.29
2018-02-10T05:58:24.686Z,84.07
2018-02-10T05:59:24.402Z,84.21
2018-02-10T06:00:24.379Z,84.11
2018-02-10T06:01:24.386Z,84.25
2018-02-10T06:02:24.399Z,84.06
2018-02-10T06:03:24.418Z,84.12
2018-02-10T06:04:24.430Z,83.78
2018-02-10T06:05:24.463Z,84.92
2018-02-10T06:06:24.428Z,84.3
2018-02-10T06:07:24.390Z,84.3
2018-02-10T06:08:24.382Z,84.41
2018-02-10T06:09:24.398Z,84.27
2018-02-10T06:10:24.369Z,84.31
2018-02-10T06:11:24.388Z,84.18
2018-02-10T06:12:24.386Z,84.36
2018-02-10T06:13:24.464Z,84.23
2018-02-10T06:14:24.442Z,84.43
2018-02-10T06:15:24.468Z,84.22
2018-02-10T06:16:24.338Z,84.26
2018-02-10T06:17:24.330Z,84.53
2018-02-10T06:18:24.360Z,84.45
2018-02-10T06:19:24.346Z,84.24
2018-02-10T06:20:24.334Z,84
2018-02-10T06:21:24.335Z,84.29
2018-02-10T06:22:24.332Z,84.35
2018-02-10T06:23:24.348Z,84.71
2018-02-10T06:24:24.359Z,84.26
2018-02-10T06:25:24.353Z,84.53
2018-02-10T06:26:24.328Z,84.5
2018-02-10T06:27:24.334Z,84.28
2018-02-10T06:28:24.329Z,84.45
2018-02-10T06:29:24.340Z,84.69
2018-02-10T06:30:24.334Z,84.76
2018-02-10T06:31:24.322Z,84.38
2018-02-10T06:32:24.332Z,84.54
2018-02-10T06:33:24.354Z,84.32
2018-02-10T06:34:24.347Z,84.21
2018-02-10T06:35:24.331Z,84.47
2018-02-10T06:36:24.349Z,84.44
2018-02-10T06:37:24.319Z,84.69
2018-02-10T06:38:24.338Z,84.68
2018-02-10T06:39:24.357Z,84.77
2018-02-10T06:40:24.346Z,84.38
2018-02-10T06:41:24.346Z,84.07
2018-02-10T06:42:24.343Z,84.76
2018-02-10T06:43:24.336Z,84.28
2018-02-10T06:44:24.364Z,84.34
2018-02-10T06:45:24.333Z,84.49
2018-02-10T06:46:24.328Z,84.39
2018-02-10T06:47:24.055Z,84.4
2018-02-10T06:48:24.057Z,84.73
2018-02-10T06:49:24.022Z,84.6
2018-02-10T06:50:24.034Z,84.39
2018-02-10T06:51:24.049Z,84.12
2018-02-10T06:52:24.053Z,84.33
2018-02-10T06:53:24.057Z,84.47
2018-02-10T06:54:24.057Z,84.48
2018-02-10T06:55:24.076Z,84.52
2018-02-10T06:58:27.071Z,84.45
2018-02-10T06:59:24.065Z,84.6
2018-02-10T07:00:24.046Z,84.57
2018-02-10T07:01:24.043Z,84.59
2018-02-10T07:02:24.050Z,84.43
2018-02-10T07:03:24.057Z,84.63
2018-02-10T07:04:24.070Z,84.48
2018-02-10T07:05:24.140Z,84.58
2018-02-10T07:06:24.083Z,84.62
2018-02-10T07:07:24.075Z,84.61
2018-02-10T07:08:24.070Z,84.58
2018-02-10T07:09:24.056Z,84.48
2018-02-10T07:10:24.074Z,84.4
2018-02-10T07:11:24.059Z,84.42
2018-02-10T07:12:24.073Z,84.54
2018-02-10T07:13:24.845Z,84.23
2018-02-10T07:14:24.073Z,84.17
2018-02-10T07:15:24.064Z,84.39
2018-02-10T07:16:24.046Z,84.38
2018-02-10T07:17:24.138Z,84.53
2018-02-10T07:18:24.060Z,84.81
2018-02-10T07:19:24.021Z,84.39
2018-02-10T07:20:24.075Z,84.62
2018-02-10T07:21:24.002Z,84.73
2018-02-10T07:22:24.010Z,84.63
2018-02-10T07:23:24.002Z,84.46
2018-02-10T07:24:24.064Z,84.87
2018-02-10T07:25:24.036Z,84.91
2018-02-10T07:26:24.026Z,84.84
2018-02-10T07:27:24.064Z,84.93
2018-02-10T07:28:24.050Z,84.89
2018-02-10T07:31:24.241Z,84.75
2018-02-10T07:32:24.067Z,84.99
2018-02-10T07:33:24.015Z,85.53
2018-02-10T07:34:24.010Z,85.65
2018-02-10T07:35:24.063Z,85.02
2018-02-10T07:36:24.022Z,85.17
2018-02-10T07:37:24.031Z,85.21
2018-02-10T07:38:24.037Z,85.37
2018-02-10T07:39:24.050Z,85.38
2018-02-10T07:40:24.044Z,85.27
2018-02-10T07:41:24.030Z,85.19
2018-02-10T07:42:24.034Z,85.27
2018-02-10T07:43:24.039Z,85.41
2018-02-10T07:44:24.056Z,85.17
2018-02-10T07:45:24.068Z,84.97
2018-02-10T07:46:24.082Z,85.03
2018-02-10T07:47:24.010Z,85.09
2018-02-10T07:48:24.010Z,85.06
2018-02-10T07:49:23.826Z,85.06
2018-02-10T07:50:23.851Z,85.01
2018-02-10T07:51:23.806Z,84.87
2018-02-10T07:52:23.842Z,84.87
2018-02-10T07:53:23.841Z,84.65
2018-02-10T07:54:23.817Z,84.85
2018-02-10T07:55:23.837Z,84.84
2018-02-10T07:56:23.823Z,84.92
2018-02-10T07:57:23.923Z,84.94
2018-02-10T07:58:23.867Z,84.52
2018-02-10T07:59:23.831Z,84.67
2018-02-10T08:00:23.866Z,84.57
2018-02-10T08:01:27.810Z,84.47
2018-02-10T08:02:23.863Z,84.55
2018-02-10T08:03:23.848Z,84.29
2018-02-10T08:04:23.855Z,84.57
2018-02-10T08:05:23.833Z,84.64
2018-02-10T08:06:23.822Z,84.56
2018-02-10T08:07:23.845Z,84.48
2018-02-10T08:08:23.852Z,84.47
2018-02-10T08:09:23.826Z,84.35
2018-02-10T08:10:23.844Z,84.34
2018-02-10T08:11:23.863Z,84.19
2018-02-10T08:12:23.845Z,84.21
2018-02-10T08:13:23.865Z,84.26
2018-02-10T08:14:23.848Z,83.88
2018-02-10T08:15:23.853Z,84.01
2018-02-10T08:16:23.835Z,84.02
2018-02-10T08:17:23.844Z,84.1
2018-02-10T08:18:23.871Z,84.09
2018-02-10T08:19:23.829Z,83.96
2018-02-10T08:20:24.900Z,84.16
2018-02-10T08:21:24.793Z,84.21
2018-02-10T08:22:24.738Z,84.03
2018-02-10T08:23:24.769Z,83.97
2018-02-10T08:24:24.759Z,84.05
2018-02-10T08:25:24.734Z,84.49
2018-02-10T08:26:24.738Z,84.52
2018-02-10T08:27:24.755Z,84.47
2018-02-10T08:28:24.747Z,84.34
2018-02-10T08:29:24.753Z,84.7
2018-02-10T08:30:24.768Z,84.82
2018-02-10T08:31:24.740Z,84.7
2018-02-10T08:32:24.740Z,84.65
2018-02-10T08:33:24.767Z,84.69
2018-02-10T08:34:24.734Z,84.57
2018-02-10T08:35:24.771Z,84.67
2018-02-10T08:36:24.751Z,84.68
2018-02-10T08:37:24.757Z,84.82
2018-02-10T08:38:24.753Z,84.44
2018-02-10T08:39:24.779Z,84.42
2018-02-10T08:40:24.777Z,84.55
2018-02-10T08:41:24.760Z,84.64
2018-02-10T08:42:24.763Z,84.8
2018-02-10T08:43:24.787Z,84.88
2018-02-10T08:44:24.747Z,84.8
2018-02-10T08:45:24.727Z,84.89
2018-02-10T08:46:24.735Z,84.83
2018-02-10T08:47:24.740Z,84.85
2018-02-10T08:48:24.757Z,84.86
2018-02-10T08:49:24.761Z,84.48
2018-02-10T08:50:24.604Z,84.59
2018-02-10T08:51:24.614Z,84.51
2018-02-10T08:52:24.611Z,84.52
2018-02-10T08:53:24.620Z,84.12
2018-02-10T08:54:24.648Z,83.91
2018-02-10T08:55:24.618Z,84.33
2018-02-10T08:56:24.632Z,84.39
2018-02-10T08:57:24.597Z,84.22
2018-02-10T08:58:24.637Z,84.22
2018-02-10T08:59:24.954Z,84.04
2018-02-10T09:00:24.602Z,83.87
2018-02-10T09:01:24.631Z,84.11
2018-02-10T09:02:24.630Z,84.13
2018-02-10T09:03:24.630Z,84.23
2018-02-10T09:04:24.643Z,83.72
2018-02-10T09:05:24.610Z,83.81
2018-02-10T09:06:24.613Z,83.37
2018-02-10T09:07:24.628Z,83.33
2018-02-10T09:08:24.675Z,83.33
2018-02-10T09:09:24.613Z,83.34
2018-02-10T09:10:24.917Z,83.06
2018-02-10T09:11:24.651Z,82.95
2018-02-10T09:12:24.601Z,82.85
2018-02-10T09:13:24.602Z,83.03
2018-02-10T09:14:24.619Z,83.16
2018-02-10T09:15:24.645Z,83.09
2018-02-10T09:16:24.628Z,83.25
2018-02-10T09:17:24.626Z,83.17
2018-02-10T09:18:24.634Z,83.24
2018-02-10T09:19:24.612Z,82.95
2018-02-10T09:20:24.612Z,82.81
2018-02-10T09:21:24.625Z,82.88
2018-02-10T09:22:24.456Z,82.63
2018-02-10T09:23:24.483Z,82.75
2018-02-10T09:24:24.451Z,82.75
2018-02-10T09:25:24.481Z,82.84
2018-02-10T09:26:24.506Z,82.9
2018-02-10T09:27:24.460Z,82.71
2018-02-10T09:28:24.504Z,82.81
2018-02-10T09:29:24.523Z,82.65
2018-02-10T09:30:24.541Z,82.54
2018-02-10T09:31:24.506Z,82.14
2018-02-10T09:32:24.492Z,81.85
2018-02-10T09:33:24.523Z,81.67
2018-02-10T09:34:24.464Z,81.78
2018-02-10T09:35:24.453Z,81.93
2018-02-10T09:36:24.471Z,81.67
2018-02-10T09:37:24.494Z,81.59
2018-02-10T09:38:24.496Z,81.59
2018-02-10T09:39:24.524Z,81.43
2018-02-10T09:40:24.448Z,81.17
2018-02-10T09:41:24.458Z,81.13
2018-02-10T09:42:24.474Z,80.98
2018-02-10T09:43:24.476Z,80.58
2018-02-10T09:44:24.485Z,80.7
2018-02-10T09:45:24.456Z,80.71
2018-02-10T09:46:24.475Z,80.62
2018-02-10T09:47:24.513Z,80.78
2018-02-10T09:48:24.483Z,80.81
2018-02-10T09:49:24.483Z,81.07
2018-02-10T09:50:24.524Z,81.25
2018-02-10T09:51:24.613Z,81.12
2018-02-10T09:52:24.661Z,80.99
2018-02-10T09:53:24.681Z,80.92
2018-02-10T09:54:24.596Z,80.83
2018-02-10T09:55:24.613Z,80.68
2018-02-10T09:56:24.611Z,80.77
2018-02-10T09:57:24.620Z,80.79
2018-02-10T09:58:24.596Z,81.01
2018-02-10T09:59:24.597Z,80.95
2018-02-10T10:00:24.579Z,80.83
2018-02-10T10:01:24.609Z,80.81
2018-02-10T10:02:24.615Z,81.02
2018-02-10T10:03:24.626Z,80.32
2018-02-10T10:04:24.614Z,80.54
2018-02-10T10:05:24.618Z,80.78
2018-02-10T10:06:24.611Z,80.85
2018-02-10T10:07:24.612Z,80.61
2018-02-10T10:08:24.615Z,80.75
2018-02-10T10:09:24.624Z,80.73
2018-02-10T10:10:24.603Z,80.58
2018-02-10T10:11:24.639Z,80.63
2018-02-10T10:12:24.614Z,80.51
2018-02-10T10:13:24.624Z,80.69
2018-02-10T10:14:24.630Z,80.68
2018-02-10T10:15:24.635Z,80.73
2018-02-10T10:16:24.599Z,80.82
2018-02-10T10:17:24.610Z,80.96
2018-02-10T10:18:24.606Z,80.89
2018-02-10T10:19:24.624Z,80.91
2018-02-10T10:20:24.613Z,81.06
2018-02-10T10:21:24.670Z,80.93
2018-02-10T10:22:24.538Z,80.98
2018-02-10T10:23:25.212Z,80.62
2018-02-10T10:24:24.569Z,80.64
2018-02-10T10:25:24.545Z,80.41
2018-02-10T10:26:24.546Z,80.66
2018-02-10T10:27:24.832Z,80.86
2018-02-10T10:28:24.549Z,80.67
2018-02-10T10:29:24.536Z,80.75
2018-02-10T10:30:24.574Z,80.8
2018-02-10T10:31:24.539Z,80.74
2018-02-10T10:32:24.578Z,80.6
2018-02-10T10:33:24.900Z,80.54
2018-02-10T10:34:24.532Z,80.67
2018-02-10T10:35:24.542Z,80.57
2018-02-10T10:36:24.530Z,80.44
2018-02-10T10:37:24.555Z,80.46
2018-02-10T10:38:24.731Z,80.38
2018-02-10T10:39:24.564Z,80.11
2018-02-10T10:40:24.555Z,80.35
2018-02-10T10:41:24.563Z,80.4
2018-02-10T10:42:24.564Z,80.58
2018-02-10T10:43:24.608Z,80.69
2018-02-10T10:44:24.573Z,80.69
2018-02-10T10:45:24.871Z,80.71
2018-02-10T10:46:24.551Z,80.71
2018-02-10T10:47:24.524Z,80.75
2018-02-10T10:48:24.511Z,80.84
2018-02-10T10:49:24.551Z,80.59
2018-02-10T10:50:24.571Z,80.64
2018-02-10T10:51:24.520Z,80.64
2018-02-10T10:52:24.534Z,80.58
2018-02-10T10:53:24.445Z,80.51
2018-02-10T10:54:24.469Z,80.48
2018-02-10T10:55:25.013Z,80.55
2018-02-10T10:56:24.447Z,80.44
2018-02-10T10:57:24.473Z,80.34
2018-02-10T10:58:25.675Z,80.41
2018-02-10T10:59:26.535Z,80.15
2018-02-10T11:00:25.523Z,80.28
2018-02-10T11:01:24.438Z,80.55
2018-02-10T11:02:24.435Z,80.44
2018-02-10T11:03:24.429Z,80.55
2018-02-10T11:04:24.458Z,80.41
2018-02-10T11:05:24.479Z,80.45
2018-02-10T11:06:24.455Z,80.37
2018-02-10T11:07:24.420Z,80.69
2018-02-10T11:08:24.824Z,80.64
2018-02-10T11:09:24.442Z,80.86
2018-02-10T11:10:24.440Z,80.88
2018-02-10T11:11:24.481Z,80.85
2018-02-10T11:12:24.466Z,80.93
2018-02-10T11:13:24.457Z,80.92
2018-02-10T11:14:24.467Z,80.86
2018-02-10T11:15:24.485Z,80.81
2018-02-10T11:16:24.469Z,80.83
2018-02-10T11:17:24.520Z,80.83
2018-02-10T11:18:24.456Z,80.88
2018-02-10T11:19:24.441Z,80.73
2018-02-10T11:20:24.453Z,80.65
2018-02-10T11:21:24.461Z,80.9
2018-02-10T11:22:24.454Z,81
2018-02-10T11:23:24.014Z,80.94
2018-02-10T11:24:23.965Z,81.09
2018-02-10T11:25:23.969Z,80.91
2018-02-10T11:26:24.006Z,80.87
2018-02-10T11:27:23.975Z,80.96
2018-02-10T11:28:23.979Z,81.06
2018-02-10T11:29:24.013Z,81.09
2018-02-10T11:30:24.599Z,81.29
2018-02-10T11:31:24.210Z,81.17
2018-02-10T11:32:24.063Z,81.28
2018-02-10T11:33:24.011Z,81.26
2018-02-10T11:34:24.013Z,81.19
2018-02-10T11:35:24.027Z,81.19
2018-02-10T11:36:24.037Z,81.09
2018-02-10T11:37:24.127Z,80.94
2018-02-10T11:38:24.132Z,80.94
2018-02-10T11:39:24.010Z,80.81
2018-02-10T11:40:23.999Z,80.91
2018-02-10T11:41:24.052Z,80.9
2018-02-10T11:42:23.977Z,81.17
2018-02-10T11:43:23.994Z,80.96
2018-02-10T11:44:23.995Z,81.07
2018-02-10T11:45:23.981Z,80.82
2018-02-10T11:46:33.958Z,81.02
2018-02-10T11:47:23.985Z,81.02
2018-02-10T11:48:23.985Z,80.34
2018-02-10T11:49:24.027Z,80.27
2018-02-10T11:50:24.092Z,80.5
2018-02-10T11:51:24.005Z,80.65
2018-02-10T11:52:23.991Z,80.51
2018-02-10T11:53:23.986Z,80.13
2018-02-10T11:54:23.971Z,80.26
2018-02-10T11:55:23.989Z,80.34
2018-02-10T11:56:24.063Z,80.56
2018-02-10T11:57:23.912Z,80.65
2018-02-10T11:58:23.904Z,80.53
2018-02-10T11:59:23.954Z,80.61
2018-02-10T12:00:23.884Z,80.69
2018-02-10T12:01:23.906Z,80.28
2018-02-10T12:02:23.945Z,80.54
2018-02-10T12:03:23.919Z,80.79
2018-02-10T12:04:24.518Z,80.57
2018-02-10T12:05:23.888Z,80.46
2018-02-10T12:06:23.918Z,80.49
2018-02-10T12:07:23.957Z,80.28
2018-02-10T12:08:23.895Z,80.21
2018-02-10T12:09:23.872Z,80.09
2018-02-10T12:10:23.909Z,80.23
2018-02-10T12:11:23.890Z,80.3
2018-02-10T12:12:23.896Z,80.32
2018-02-10T12:13:23.984Z,80.53
2018-02-10T12:14:23.906Z,80.43
2018-02-10T12:15:23.888Z,80.39
2018-02-10T12:16:23.908Z,80.51
2018-02-10T12:17:23.900Z,80.45
2018-02-10T12:18:23.912Z,80.42
2018-02-10T12:19:23.912Z,80.26
2018-02-10T12:20:24.003Z,80.38
2018-02-10T12:21:25.037Z,79.96
2018-02-10T12:22:24.007Z,80.02
2018-02-10T12:23:24.013Z,80.14
2018-02-10T12:24:23.878Z,80.05
2018-02-10T12:25:23.886Z,80.11
2018-02-10T12:26:23.921Z,80.28
2018-02-10T12:27:23.943Z,80.31
2018-02-10T12:28:23.899Z,80.4
2018-02-10T12:29:23.937Z,80.39
2018-02-10T12:30:23.863Z,80.45
2018-02-10T12:31:23.863Z,80.47
2018-02-10T12:32:24.611Z,80.47
2018-02-10T12:33:23.958Z,80.41
2018-02-10T12:34:23.840Z,80.16
2018-02-10T12:35:23.904Z,80.03
2018-02-10T12:36:23.879Z,80.31
2018-02-10T12:37:23.849Z,80.16
2018-02-10T12:38:23.922Z,79.88
2018-02-10T12:39:23.843Z,79.82
2018-02-10T12:40:23.915Z,79.78
2018-02-10T12:41:23.851Z,79.79
2018-02-10T12:42:23.861Z,79.72
2018-02-10T12:43:23.887Z,79.76
2018-02-10T12:44:23.899Z,79.58
2018-02-10T12:45:23.844Z,79.62
2018-02-10T12:46:23.850Z,79.76
2018-02-10T12:47:24.019Z,79.66
2018-02-10T12:48:23.864Z,79.47
2018-02-10T12:49:23.838Z,78.94
2018-02-10T12:50:23.904Z,78.94
2018-02-10T12:51:23.880Z,78.75
2018-02-10T12:52:23.869Z,78.65
2018-02-10T12:53:23.954Z,79.06
2018-02-10T12:54:23.868Z,78.91
2018-02-10T12:55:24.396Z,79.23
2018-02-10T12:56:24.447Z,79.04
2018-02-10T12:57:24.387Z,78.91
2018-02-10T12:58:24.357Z,78.92
2018-02-10T12:59:24.363Z,78.85